Time;durP1;ratioP1;P1;durP2;ratioP2;P2;SDS_P1;SDS_P2;PMS_P1;PMS_P2;Temp;Humidity;BMP_temperature;BMP_pressure;BME280_temperature;BME280_humidity;BME280_pressure;Samples;Min_cycle;Max_cycle;Signal;HPM_P1;HPM_P2
2023/08/11 00:02:18;;;;;;;9.73;6.47;;;16.30;99.90;;;;;;4948848;28;20525;-74
2023/08/11 00:04:43;;;;;;;7.00;5.63;;;16.30;99.90;;;;;;4930107;29;20059;-74
2023/08/11 00:07:10;;;;;;;14.35;5.90;;;16.30;99.90;;;;;;4931328;28;20506;-74
2023/08/11 00:09:35;;;;;;;6.65;6.03;;;16.20;99.90;;;;;;4947836;28;20039;-74
2023/08/11 00:12:01;;;;;;;8.88;6.05;;;16.10;99.90;;;;;;4930377;28;20051;-74
2023/08/11 00:14:26;;;;;;;6.22;5.70;;;16.10;99.90;;;;;;4928638;29;20046;-74
2023/08/11 00:16:52;;;;;;;9.13;7.07;;;16.00;99.90;;;;;;4945280;28;20050;-75
2023/08/11 00:19:18;;;;;;;6.70;6.10;;;16.00;99.90;;;;;;4949157;28;20039;-75
2023/08/11 00:21:43;;;;;;;6.57;5.95;;;16.00;99.90;;;;;;4949256;28;20027;-75
2023/08/11 00:24:09;;;;;;;9.32;6.75;;;15.90;99.90;;;;;;4948310;28;20113;-74
2023/08/11 00:26:35;;;;;;;8.02;7.07;;;15.90;99.90;;;;;;4945230;29;20039;-74
2023/08/11 00:29:00;;;;;;;9.32;7.13;;;15.90;99.90;;;;;;4929082;29;20406;-74
2023/08/11 00:31:27;;;;;;;10.25;7.28;;;15.80;99.90;;;;;;4950745;28;20044;-74
2023/08/11 00:33:52;;;;;;;8.88;6.70;;;15.70;99.90;;;;;;4961514;28;20114;-74
2023/08/11 00:36:18;;;;;;;6.45;5.93;;;15.80;99.90;;;;;;4946911;28;20043;-74
2023/08/11 00:38:44;;;;;;;8.00;6.88;;;15.70;99.90;;;;;;4930021;29;20098;-74
2023/08/11 00:41:10;;;;;;;7.55;6.40;;;15.70;99.90;;;;;;4946002;28;20067;-74
2023/08/11 00:43:36;;;;;;;7.05;6.45;;;15.60;99.90;;;;;;4958788;28;20123;-74
2023/08/11 00:46:08;;;;;;;8.02;7.22;;;15.60;99.90;;;;;;4928849;29;20126;-74
2023/08/11 00:48:35;;;;;;;11.23;7.55;;;15.60;99.90;;;;;;4937034;29;20086;-74
2023/08/11 00:51:01;;;;;;;11.93;7.43;;;15.60;99.90;;;;;;4946794;28;20046;-74
2023/08/11 00:53:26;;;;;;;7.95;6.68;;;15.50;99.90;;;;;;4946527;28;20111;-74
2023/08/11 00:55:52;;;;;;;8.45;7.18;;;15.50;99.90;;;;;;4927297;29;20043;-74
2023/08/11 00:58:18;;;;;;;8.93;5.78;;;15.50;99.90;;;;;;4949027;28;20031;-74
2023/08/11 01:00:45;;;;;;;7.05;6.35;;;15.50;99.90;;;;;;4927003;29;20043;-74
2023/08/11 01:03:11;;;;;;;11.43;8.07;;;15.40;99.90;;;;;;4947053;28;20077;-74
2023/08/11 01:05:43;;;;;;;10.18;9.25;;;15.40;99.90;;;;;;4947167;28;20039;-74
2023/08/11 01:08:22;;;;;;;13.73;8.40;;;15.40;99.90;;;;;;4928992;29;20047;-74
2023/08/11 01:11:00;;;;;;;43.30;11.77;;;15.30;99.90;;;;;;4948848;28;20080;-74
2023/08/11 01:13:29;;;;;;;13.13;9.40;;;15.30;99.90;;;;;;4963069;28;20036;-74
2023/08/11 01:15:57;;;;;;;10.35;9.45;;;15.20;99.90;;;;;;4946794;28;20102;-74
2023/08/11 01:18:23;;;;;;;11.85;9.57;;;15.20;99.90;;;;;;4959424;28;20487;-74
2023/08/11 01:20:53;;;;;;;14.27;9.00;;;15.20;99.90;;;;;;4946156;28;20095;-74
2023/08/11 01:23:21;;;;;;;9.68;8.88;;;15.20;99.90;;;;;;4927525;29;20039;-74
2023/08/11 01:25:51;;;;;;;10.48;8.93;;;15.10;99.90;;;;;;4960920;28;20103;-74
2023/08/11 01:28:17;;;;;;;9.45;8.40;;;15.10;99.90;;;;;;4958214;28;20494;-74
2023/08/11 01:30:43;;;;;;;9.88;8.88;;;15.10;99.90;;;;;;4928477;29;20510;-74
2023/08/11 01:33:09;;;;;;;10.45;9.45;;;15.10;99.90;;;;;;4946121;28;20039;-74
2023/08/11 01:35:34;;;;;;;11.32;10.23;;;15.10;99.90;;;;;;4944271;28;20039;-74
2023/08/11 01:38:00;;;;;;;9.95;8.32;;;15.10;99.90;;;;;;4925353;29;20040;-74
2023/08/11 01:40:26;;;;;;;11.27;10.20;;;15.10;99.90;;;;;;4930723;29;20044;-74
2023/08/11 01:42:56;;;;;;;13.07;11.98;;;15.00;99.90;;;;;;4959716;28;20126;-74
2023/08/11 01:45:22;;;;;;;13.57;12.27;;;15.10;99.90;;;;;;4931266;29;20046;-74
2023/08/11 01:47:49;;;;;;;11.98;10.77;;;15.00;99.90;;;;;;4947561;28;20058;-74
2023/08/11 01:50:17;;;;;;;12.45;11.25;;;14.90;99.90;;;;;;4960496;28;20126;-74
2023/08/11 01:52:45;;;;;;;11.85;10.73;;;14.90;99.90;;;;;;4961131;28;20082;-74
2023/08/11 01:55:13;;;;;;;14.50;11.13;;;14.90;99.90;;;;;;4948034;28;20047;-74
2023/08/11 01:57:42;;;;;;;12.02;10.75;;;14.90;99.90;;;;;;4929940;28;20546;-74
2023/08/11 02:00:12;;;;;;;15.18;10.15;;;14.90;99.90;;;;;;4959817;28;20048;-74
2023/08/11 02:02:39;;;;;;;13.60;12.32;;;14.90;99.90;;;;;;4961456;28;20043;-74
2023/08/11 02:05:07;;;;;;;13.25;11.75;;;14.90;99.90;;;;;;4929774;29;20095;-74
2023/08/11 02:07:35;;;;;;;13.38;12.15;;;14.90;99.90;;;;;;4947012;28;20050;-74
2023/08/11 02:10:02;;;;;;;12.38;11.20;;;14.90;99.90;;;;;;4945383;28;20076;-74
2023/08/11 02:12:27;;;;;;;16.25;12.93;;;14.90;99.90;;;;;;4959852;28;20057;-75
2023/08/11 02:14:53;;;;;;;15.02;13.32;;;14.90;99.90;;;;;;4927436;29;20039;-74
2023/08/11 02:17:19;;;;;;;15.43;12.70;;;14.90;99.90;;;;;;4944417;28;20043;-74
2023/08/11 02:19:45;;;;;;;13.88;12.45;;;14.90;99.90;;;;;;4946916;28;20059;-74
2023/08/11 02:22:11;;;;;;;13.73;12.35;;;14.80;99.90;;;;;;4944498;28;20054;-75
2023/08/11 02:24:37;;;;;;;15.00;11.95;;;14.90;99.90;;;;;;4944597;28;20489;-74
2023/08/11 02:27:02;;;;;;;11.75;10.60;;;14.90;99.90;;;;;;4946516;29;20047;-74
2023/08/11 02:29:28;;;;;;;14.18;12.52;;;14.80;99.90;;;;;;4960307;28;20050;-74
2023/08/11 02:31:53;;;;;;;14.50;13.18;;;14.80;99.90;;;;;;4958001;28;20062;-74
2023/08/11 02:34:19;;;;;;;12.98;11.82;;;14.90;99.90;;;;;;4927868;29;20058;-75
2023/08/11 02:36:45;;;;;;;15.00;9.90;;;14.90;99.90;;;;;;4926493;29;20207;-74
2023/08/11 02:39:10;;;;;;;16.45;12.80;;;14.90;99.90;;;;;;4934134;29;20074;-74
2023/08/11 02:41:36;;;;;;;13.63;12.20;;;14.90;99.90;;;;;;4947066;28;20402;-74
2023/08/11 02:44:02;;;;;;;17.05;12.57;;;14.90;99.90;;;;;;4927340;29;20467;-74
2023/08/11 02:46:27;;;;;;;13.38;11.32;;;14.90;99.90;;;;;;4958141;28;20050;-74
2023/08/11 02:48:53;;;;;;;13.93;12.50;;;14.90;99.90;;;;;;4959590;28;20047;-74
2023/08/11 02:51:19;;;;;;;33.60;14.27;;;14.90;99.90;;;;;;4928344;29;20487;-74
2023/08/11 02:53:44;;;;;;;14.18;12.05;;;14.90;99.90;;;;;;4926349;28;20390;-74
2023/08/11 02:56:15;;;;;;;15.07;13.40;;;14.80;99.90;;;;;;4933876;29;20043;-74
2023/08/11 02:58:43;;;;;;;14.00;12.60;;;14.80;99.90;;;;;;4960783;28;20491;-74
2023/08/11 03:01:09;;;;;;;16.38;11.90;;;14.80;99.90;;;;;;4946046;28;20039;-74
2023/08/11 03:03:34;;;;;;;12.30;11.30;;;14.80;99.90;;;;;;4947544;28;20111;-74
2023/08/11 03:06:00;;;;;;;14.05;11.57;;;14.70;99.90;;;;;;4912664;28;20514;-74
2023/08/11 03:08:25;;;;;;;16.10;12.50;;;14.70;99.90;;;;;;4927906;29;20078;-74
2023/08/11 03:10:51;;;;;;;13.43;11.68;;;14.70;99.90;;;;;;4957819;28;20047;-74
2023/08/11 03:13:17;;;;;;;12.07;10.98;;;14.80;99.90;;;;;;4928811;29;20043;-74
2023/08/11 03:15:43;;;;;;;18.85;11.18;;;14.80;99.90;;;;;;4927191;29;20070;-74
2023/08/11 03:18:11;;;;;;;13.18;11.40;;;14.90;99.90;;;;;;4927371;28;20050;-74
2023/08/11 03:20:36;;;;;;;12.90;11.65;;;14.90;99.90;;;;;;4942189;28;20495;-74
2023/08/11 03:23:04;;;;;;;12.52;11.23;;;15.00;99.90;;;;;;4943942;28;20074;-74
2023/08/11 03:25:30;;;;;;;12.70;11.50;;;15.00;99.90;;;;;;4943969;28;20090;-74
2023/08/11 03:27:56;;;;;;;12.95;10.35;;;15.00;99.90;;;;;;4943546;28;20099;-74
2023/08/11 03:30:23;;;;;;;11.82;10.85;;;14.90;99.90;;;;;;4926883;29;20039;-74
2023/08/11 03:32:48;;;;;;;11.85;10.65;;;15.00;99.90;;;;;;4944201;28;20058;-74
2023/08/11 03:35:17;;;;;;;10.68;9.38;;;15.00;99.90;;;;;;4924262;28;20052;-75
2023/08/11 03:37:43;;;;;;;11.52;10.43;;;15.10;99.90;;;;;;4957959;28;20102;-74
2023/08/11 03:40:12;;;;;;;12.05;10.95;;;15.00;99.90;;;;;;4925179;28;20079;-74
2023/08/11 03:42:42;;;;;;;10.73;9.60;;;14.90;99.90;;;;;;4942484;28;20070;-74
2023/08/11 03:45:11;;;;;;;11.52;10.38;;;15.00;99.90;;;;;;4957137;28;20081;-74
2023/08/11 03:47:37;;;;;;;11.50;10.40;;;14.90;99.90;;;;;;4959195;28;20442;-74
2023/08/11 03:50:04;;;;;;;10.75;9.65;;;14.90;99.90;;;;;;4959105;28;20047;-74
2023/08/11 03:52:29;;;;;;;10.18;9.18;;;14.90;99.90;;;;;;4944846;28;20050;-74
2023/08/11 03:54:55;;;;;;;9.80;8.63;;;14.90;99.90;;;;;;4908778;28;20048;-74
2023/08/11 03:57:21;;;;;;;10.45;9.30;;;14.90;99.90;;;;;;4944072;28;20509;-74
2023/08/11 03:59:46;;;;;;;14.48;9.68;;;14.90;99.90;;;;;;4943425;29;20036;-74
2023/08/11 04:02:13;;;;;;;9.50;8.40;;;14.90;99.90;;;;;;4944362;28;20098;-74
2023/08/11 04:04:38;;;;;;;12.40;9.23;;;14.90;99.90;;;;;;4941964;28;20031;-74
2023/08/11 04:07:05;;;;;;;10.20;9.15;;;14.90;99.90;;;;;;4944890;28;20118;-75
2023/08/11 04:09:31;;;;;;;9.15;8.25;;;14.90;99.90;;;;;;4923051;29;20039;-74
2023/08/11 04:11:56;;;;;;;10.18;9.10;;;14.90;99.90;;;;;;4957985;28;20040;-74
2023/08/11 04:14:22;;;;;;;11.70;8.55;;;14.90;99.90;;;;;;4917216;28;20039;-74
2023/08/11 04:16:47;;;;;;;9.98;8.25;;;15.00;99.90;;;;;;4954905;28;20087;-74
2023/08/11 04:19:13;;;;;;;13.13;9.05;;;15.00;99.90;;;;;;4944436;28;20130;-74
2023/08/11 04:21:40;;;;;;;9.35;8.13;;;15.00;99.90;;;;;;4944722;28;20055;-74
2023/08/11 04:24:06;;;;;;;9.50;8.18;;;15.00;99.90;;;;;;4943078;28;20047;-74
2023/08/11 04:26:33;;;;;;;11.13;8.32;;;15.00;99.90;;;;;;4947160;28;20062;-73
2023/08/11 04:29:01;;;;;;;9.20;7.82;;;15.00;99.90;;;;;;4959925;28;20063;-74
2023/08/11 04:31:27;;;;;;;13.82;8.23;;;15.10;99.90;;;;;;4959561;28;20043;-74
2023/08/11 04:33:53;;;;;;;9.75;7.90;;;15.10;99.90;;;;;;4958832;28;20121;-75
2023/08/11 04:36:19;;;;;;;14.70;7.18;;;15.20;99.90;;;;;;4944286;28;20482;-74
2023/08/11 04:38:44;;;;;;;10.77;7.78;;;15.20;99.90;;;;;;4944972;28;20077;-75
2023/08/11 04:41:10;;;;;;;8.00;7.20;;;15.30;99.90;;;;;;4956967;28;20046;-74
2023/08/11 04:43:36;;;;;;;11.35;7.53;;;15.40;99.90;;;;;;4959344;28;20067;-74
2023/08/11 04:46:03;;;;;;;7.78;7.00;;;15.40;99.90;;;;;;4960612;28;20043;-74
2023/08/11 04:48:29;;;;;;;9.32;6.80;;;15.50;99.90;;;;;;4950670;28;20048;-75
2023/08/11 04:50:56;;;;;;;7.25;6.63;;;15.60;99.90;;;;;;4945758;28;20382;-74
2023/08/11 04:53:22;;;;;;;8.90;7.03;;;15.60;99.90;;;;;;4927775;29;20074;-75
2023/08/11 04:55:48;;;;;;;9.30;7.22;;;15.60;99.90;;;;;;4944394;28;20502;-75
2023/08/11 04:58:14;;;;;;;8.30;7.15;;;15.70;99.90;;;;;;4959073;28;20044;-75
2023/08/11 05:00:39;;;;;;;9.40;7.35;;;15.80;99.90;;;;;;4947475;28;20414;-74
2023/08/11 05:03:05;;;;;;;7.47;6.63;;;15.90;99.90;;;;;;4932206;29;20043;-74
2023/08/11 05:05:31;;;;;;;7.60;6.90;;;16.00;99.90;;;;;;4927743;29;20046;-74
2023/08/11 05:07:56;;;;;;;7.38;6.68;;;16.00;99.90;;;;;;4961535;28;20083;-75
2023/08/11 05:10:22;;;;;;;9.35;7.15;;;16.10;99.90;;;;;;4947268;28;20058;-74
2023/08/11 05:12:48;;;;;;;8.77;7.47;;;16.10;99.90;;;;;;4947129;28;20126;-75
2023/08/11 05:15:14;;;;;;;8.38;6.57;;;16.20;99.90;;;;;;4960064;28;20451;-75
2023/08/11 05:17:40;;;;;;;8.85;6.40;;;16.30;99.90;;;;;;4943627;29;20028;-74
2023/08/11 05:20:10;;;;;;;10.40;6.65;;;16.40;99.90;;;;;;4935053;28;20503;-75
2023/08/11 05:22:36;;;;;;;6.22;5.72;;;16.60;99.90;;;;;;4946794;28;20118;-75
2023/08/11 05:25:03;;;;;;;7.05;5.38;;;17.20;99.90;;;;;;4960290;28;20070;-75
2023/08/11 05:27:29;;;;;;;9.65;5.65;;;18.60;99.90;;;;;;4946788;28;20103;-75
2023/08/11 05:29:55;;;;;;;5.47;4.93;;;20.10;99.90;;;;;;4948718;28;20044;-75
2023/08/11 05:32:20;;;;;;;5.72;4.75;;;21.50;99.90;;;;;;4949083;28;20487;-75
2023/08/11 05:34:46;;;;;;;4.72;4.22;;;22.70;99.90;;;;;;4928625;29;20046;-75
2023/08/11 05:37:12;;;;;;;6.97;4.20;;;23.70;99.90;;;;;;4927140;28;20475;-75
2023/08/11 05:39:41;;;;;;;6.55;4.00;;;24.50;99.90;;;;;;4948990;29;20039;-75
2023/08/11 05:42:07;;;;;;;10.27;5.00;;;25.10;99.90;;;;;;4946636;28;20667;-75
2023/08/11 05:44:33;;;;;;;4.57;3.78;;;25.60;99.90;;;;;;4944034;29;20406;-75
2023/08/11 05:46:59;;;;;;;5.85;3.85;;;26.50;99.90;;;;;;4926845;29;20047;-77
2023/08/11 05:49:25;;;;;;;4.10;2.88;;;27.10;99.90;;;;;;4945014;28;20044;-76
2023/08/11 05:51:50;;;;;;;5.32;3.35;;;27.40;99.90;;;;;;4934316;29;20070;-76
2023/08/11 05:54:16;;;;;;;4.38;3.30;;;27.80;99.90;;;;;;4958486;28;20170;-76
2023/08/11 05:56:42;;;;;;;4.85;3.30;;;28.00;99.90;;;;;;4940473;28;20372;-76
2023/08/11 05:59:07;;;;;;;5.65;3.47;;;27.60;99.90;;;;;;4958766;28;20050;-76
2023/08/11 06:01:34;;;;;;;6.32;3.60;;;26.90;99.90;;;;;;4927870;28;20047;-76
2023/08/11 06:03:59;;;;;;;5.43;3.88;;;26.40;99.90;;;;;;4942775;28;20043;-76
2023/08/11 06:06:26;;;;;;;4.07;3.65;;;25.90;99.90;;;;;;4928824;29;20122;-76
2023/08/11 06:08:54;;;;;;;5.10;3.58;;;25.50;99.90;;;;;;4928251;29;20078;-76
2023/08/11 06:11:20;;;;;;;6.75;3.95;;;25.20;99.90;;;;;;4948693;28;20036;-74
2023/08/11 06:13:46;;;;;;;3.47;3.17;;;25.00;99.90;;;;;;4948186;28;20043;-73
2023/08/11 06:16:11;;;;;;;7.95;3.92;;;24.70;99.90;;;;;;4946370;28;20099;-74
2023/08/11 06:18:38;;;;;;;7.25;4.03;;;24.70;99.90;;;;;;4946611;28;20035;-74
2023/08/11 06:21:04;;;;;;;5.45;3.78;;;24.60;99.90;;;;;;4958851;28;20179;-74
2023/08/11 06:23:31;;;;;;;6.70;4.13;;;24.50;99.90;;;;;;4943037;28;20035;-74
2023/08/11 06:25:57;;;;;;;5.90;4.00;;;24.40;99.90;;;;;;4944934;28;20495;-74
2023/08/11 06:28:22;;;;;;;5.78;3.75;;;24.30;99.90;;;;;;4928556;28;20232;-75
2023/08/11 06:30:48;;;;;;;5.95;3.67;;;24.40;99.90;;;;;;4928856;29;20102;-74
2023/08/11 06:33:13;;;;;;;5.05;3.40;;;24.30;99.90;;;;;;4945226;28;20047;-75
2023/08/11 06:35:39;;;;;;;7.15;3.47;;;24.30;99.90;;;;;;4926279;29;20051;-74
2023/08/11 06:38:05;;;;;;;4.70;3.17;;;24.30;99.90;;;;;;4944386;28;20054;-74
2023/08/11 06:40:30;;;;;;;4.97;3.80;;;24.40;99.90;;;;;;4946271;28;20043;-74
2023/08/11 06:42:56;;;;;;;4.93;3.47;;;24.40;99.90;;;;;;4955926;28;20048;-75
2023/08/11 06:45:21;;;;;;;5.10;3.20;;;24.30;99.90;;;;;;4927656;29;20074;-75
2023/08/11 06:47:47;;;;;;;6.75;3.60;;;24.30;99.90;;;;;;4944983;28;20058;-75
2023/08/11 06:50:13;;;;;;;6.88;3.22;;;24.50;99.90;;;;;;4925509;29;20055;-74
2023/08/11 06:52:38;;;;;;;5.80;3.55;;;24.50;99.90;;;;;;4929700;28;20082;-75
2023/08/11 06:55:05;;;;;;;4.82;3.75;;;24.60;99.90;;;;;;4926743;29;20090;-74
2023/08/11 06:57:30;;;;;;;4.40;3.38;;;24.70;99.90;;;;;;4944578;28;20039;-75
2023/08/11 06:59:56;;;;;;;4.28;3.15;;;24.70;99.90;;;;;;4959307;28;20400;-75
2023/08/11 07:02:22;;;;;;;4.80;3.70;;;24.80;99.90;;;;;;4926695;29;20129;-75
2023/08/11 07:04:48;;;;;;;5.30;3.55;;;24.70;99.90;;;;;;4945322;29;20086;-75
2023/08/11 07:07:13;;;;;;;5.20;4.35;;;24.80;99.90;;;;;;4930763;29;20078;-75
2023/08/11 07:09:39;;;;;;;4.53;3.45;;;24.90;99.90;;;;;;4941564;28;20036;-75
2023/08/11 07:12:06;;;;;;;3.92;3.33;;;24.90;99.90;;;;;;4942268;29;20063;-76
2023/08/11 07:14:31;;;;;;;4.32;3.72;;;25.00;99.90;;;;;;4943553;28;20509;-75
2023/08/11 07:16:57;;;;;;;6.45;3.15;;;25.20;99.90;;;;;;4945473;28;20627;-75
2023/08/11 07:19:22;;;;;;;3.38;3.05;;;25.30;99.90;;;;;;4947314;28;20028;-75
2023/08/11 07:21:48;;;;;;;4.63;4.00;;;25.40;99.90;;;;;;4941718;28;20068;-75
2023/08/11 07:24:13;;;;;;;3.95;3.38;;;25.50;99.90;;;;;;4944845;28;20080;-75
2023/08/11 07:26:39;;;;;;;5.72;3.70;;;25.50;99.90;;;;;;4943799;28;20046;-75
2023/08/11 07:29:05;;;;;;;4.70;3.65;;;25.60;99.90;;;;;;4926438;28;21363;-75
2023/08/11 07:31:30;;;;;;;4.35;3.95;;;25.90;99.90;;;;;;4944703;28;20036;-75
2023/08/11 07:33:56;;;;;;;6.00;3.85;;;25.60;99.90;;;;;;4944981;28;20458;-75
2023/08/11 07:36:22;;;;;;;4.55;3.30;;;25.50;99.90;;;;;;4943384;28;20042;-75
2023/08/11 07:38:47;;;;;;;4.97;3.70;;;25.20;99.90;;;;;;4940817;28;20432;-75
2023/08/11 07:41:13;;;;;;;6.70;3.50;;;25.20;99.90;;;;;;4928481;28;20062;-75
2023/08/11 07:43:39;;;;;;;6.18;2.85;;;25.10;99.90;;;;;;4958779;28;20035;-75
2023/08/11 07:46:05;;;;;;;3.80;3.47;;;25.30;99.90;;;;;;4924841;28;20110;-76
2023/08/11 07:48:31;;;;;;;7.90;3.08;;;25.30;99.90;;;;;;4942775;28;20078;-75
2023/08/11 07:50:56;;;;;;;6.05;2.95;;;25.30;99.90;;;;;;4944534;28;20048;-75
2023/08/11 07:53:22;;;;;;;4.70;3.33;;;25.30;99.90;;;;;;4943095;28;20046;-75
2023/08/11 07:55:47;;;;;;;3.65;2.95;;;25.50;99.90;;;;;;4928895;29;20047;-75
2023/08/11 07:58:13;;;;;;;4.22;3.25;;;25.40;99.90;;;;;;4945260;28;20050;-74
2023/08/11 08:00:39;;;;;;;3.78;2.60;;;25.50;99.90;;;;;;4942071;28;20040;-75
2023/08/11 08:03:04;;;;;;;7.10;3.15;;;25.60;99.90;;;;;;4945204;28;20031;-74
2023/08/11 08:05:31;;;;;;;6.10;3.03;;;25.60;99.90;;;;;;4945326;28;20039;-75
2023/08/11 08:07:57;;;;;;;3.88;2.92;;;25.90;99.90;;;;;;4943359;28;20054;-75
2023/08/11 08:10:23;;;;;;;5.57;2.55;;;25.80;99.90;;;;;;4945775;28;20110;-75
2023/08/11 08:12:49;;;;;;;6.03;3.22;;;25.90;99.90;;;;;;4942641;28;20046;-75
2023/08/11 08:15:16;;;;;;;2.40;2.20;;;25.90;99.90;;;;;;4925243;28;20062;-75
2023/08/11 08:17:42;;;;;;;6.30;2.13;;;26.10;99.90;;;;;;4945684;28;20465;-75
2023/08/11 08:20:09;;;;;;;5.75;2.25;;;26.00;99.90;;;;;;4931500;28;20173;-75
2023/08/11 08:22:35;;;;;;;4.20;2.13;;;26.10;99.90;;;;;;4945786;28;20039;-74
2023/08/11 08:25:01;;;;;;;4.88;2.90;;;26.30;99.90;;;;;;4929369;28;20043;-75
2023/08/11 08:27:26;;;;;;;6.25;2.50;;;26.30;99.90;;;;;;4930939;28;20453;-75
2023/08/11 08:29:53;;;;;;;3.67;2.33;;;26.30;99.90;;;;;;4931304;29;20039;-74
2023/08/11 08:32:21;;;;;;;4.60;2.90;;;26.30;99.90;;;;;;4947010;28;20421;-75
2023/08/11 08:34:48;;;;;;;5.03;2.30;;;26.30;99.90;;;;;;4944647;28;20047;-75
2023/08/11 08:37:14;;;;;;;6.32;2.00;;;26.40;99.90;;;;;;4946269;28;20047;-75
2023/08/11 08:39:40;;;;;;;4.63;2.42;;;26.50;99.90;;;;;;4960963;28;20035;-74
2023/08/11 08:42:06;;;;;;;4.53;2.10;;;26.50;99.90;;;;;;4927800;28;20051;-75
2023/08/11 08:44:35;;;;;;;3.13;2.05;;;26.50;99.90;;;;;;4946677;28;20498;-74
2023/08/11 08:47:04;;;;;;;3.20;2.10;;;26.50;99.90;;;;;;4962052;28;20189;-74
2023/08/11 08:49:30;;;;;;;4.03;2.22;;;26.40;99.90;;;;;;4932773;28;20090;-75
2023/08/11 08:51:56;;;;;;;4.50;2.65;;;26.60;99.90;;;;;;4961148;28;20043;-75
2023/08/11 08:54:23;;;;;;;2.92;1.92;;;26.50;99.90;;;;;;4946196;29;20035;-75
2023/08/11 08:56:51;;;;;;;6.03;2.40;;;26.50;99.90;;;;;;4961550;28;20051;-75
2023/08/11 08:59:17;;;;;;;6.30;2.45;;;26.60;99.90;;;;;;4944253;28;20122;-74
2023/08/11 09:01:44;;;;;;;5.43;2.92;;;26.70;99.90;;;;;;4947611;28;20475;-74
2023/08/11 09:04:10;;;;;;;9.60;3.35;;;26.80;99.90;;;;;;4945197;28;20406;-74
2023/08/11 09:06:38;;;;;;;6.40;3.30;;;26.80;99.90;;;;;;4943977;28;20046;-74
2023/08/11 09:09:05;;;;;;;5.68;2.92;;;26.80;99.90;;;;;;4947054;28;20480;-74
2023/08/11 09:11:30;;;;;;;4.38;2.60;;;26.80;99.90;;;;;;4948198;29;20466;-74
2023/08/11 09:14:06;;;;;;;4.32;2.90;;;27.00;99.90;;;;;;4928632;29;20039;-74
2023/08/11 09:16:36;;;;;;;4.35;2.72;;;27.10;99.90;;;;;;4957696;28;20047;-74
2023/08/11 09:19:10;;;;;;;4.82;2.80;;;27.00;99.90;;;;;;4930104;29;20035;-74
2023/08/11 09:21:36;;;;;;;7.05;3.75;;;27.00;99.90;;;;;;4959694;28;20039;-74
2023/08/11 09:24:02;;;;;;;5.10;2.60;;;27.10;99.90;;;;;;4930290;29;20035;-73
2023/08/11 09:26:28;;;;;;;4.38;2.58;;;27.10;99.90;;;;;;4955019;28;20102;-75
2023/08/11 09:28:54;;;;;;;4.72;3.00;;;27.10;99.90;;;;;;4953086;28;20075;-72
2023/08/11 09:31:24;;;;;;;6.18;3.20;;;27.20;99.90;;;;;;4943839;28;20047;-75
2023/08/11 09:33:51;;;;;;;3.25;2.47;;;27.20;99.90;;;;;;4949065;28;20058;-76
2023/08/11 09:36:18;;;;;;;5.35;2.58;;;27.30;99.90;;;;;;4960792;28;20157;-76
2023/08/11 09:38:52;;;;;;;6.50;2.55;;;27.50;99.90;;;;;;4946087;28;20628;-75
2023/08/11 09:41:18;;;;;;;5.85;2.53;;;27.50;99.90;;;;;;4946421;28;20050;-75
2023/08/11 09:43:50;;;;;;;4.55;2.60;;;27.50;99.90;;;;;;4945590;28;20922;-74
2023/08/11 09:46:16;;;;;;;4.68;2.28;;;27.60;99.90;;;;;;4943882;28;20545;-74
2023/08/11 09:48:41;;;;;;;5.85;2.70;;;27.70;99.90;;;;;;4958108;28;20062;-74
2023/08/11 09:51:10;;;;;;;7.45;2.80;;;27.60;99.70;;;;;;4922043;28;20090;-74
2023/08/11 09:53:44;;;;;;;5.22;2.38;;;27.60;99.90;;;;;;4944309;28;20474;-74
2023/08/11 09:56:12;;;;;;;10.95;3.00;;;27.70;99.90;;;;;;4957787;28;20055;-74
2023/08/11 09:58:39;;;;;;;4.03;2.33;;;27.80;99.90;;;;;;4926781;28;20471;-74
2023/08/11 10:01:09;;;;;;;8.93;2.30;;;27.90;99.90;;;;;;4956775;28;20486;-74
2023/08/11 10:03:45;;;;;;;5.28;2.35;;;28.00;99.90;;;;;;4940607;28;20034;-74
2023/08/11 10:06:16;;;;;;;6.38;2.47;;;28.10;99.90;;;;;;4956574;28;20050;-74
2023/08/11 10:08:43;;;;;;;6.47;3.10;;;28.10;99.90;;;;;;4924844;28;20051;-73
2023/08/11 10:11:10;;;;;;;4.55;2.40;;;28.20;99.90;;;;;;4963470;28;20051;-76
2023/08/11 10:13:36;;;;;;;9.70;3.03;;;28.20;99.90;;;;;;4932036;28;20972;-76
2023/08/11 10:16:02;;;;;;;6.65;2.60;;;28.30;99.90;;;;;;4959565;28;20047;-76
2023/08/11 10:18:31;;;;;;;7.00;3.30;;;28.30;99.90;;;;;;4943235;28;20972;-76
2023/08/11 10:20:57;;;;;;;4.80;2.00;;;28.30;99.90;;;;;;4943752;28;20044;-76
2023/08/11 10:23:23;;;;;;;4.30;2.45;;;28.30;99.80;;;;;;4959134;28;20097;-74
2023/08/11 10:25:49;;;;;;;5.50;2.05;;;28.20;99.00;;;;;;4943488;28;20054;-74
2023/08/11 10:28:16;;;;;;;5.72;1.80;;;28.20;99.10;;;;;;4959444;28;20043;-74
2023/08/11 10:30:42;;;;;;;5.28;1.73;;;28.20;99.20;;;;;;4959485;28;20130;-74
2023/08/11 10:33:09;;;;;;;6.90;2.28;;;28.30;99.50;;;;;;4945904;28;20577;-73
2023/08/11 10:35:51;;;;;;;2.45;1.92;;;28.30;99.40;;;;;;4945524;28;20502;-74
2023/08/11 10:38:25;;;;;;;5.10;2.13;;;28.30;99.30;;;;;;4957722;28;20043;-74
2023/08/11 10:40:59;;;;;;;2.40;1.48;;;28.40;99.70;;;;;;4942211;28;20083;-74
2023/08/11 10:43:33;;;;;;;3.42;2.05;;;28.50;99.90;;;;;;4942789;28;20065;-74
2023/08/11 10:46:21;;;;;;;3.58;2.25;;;28.60;99.80;;;;;;4942404;28;20243;-74
2023/08/11 10:48:47;;;;;;;4.45;2.22;;;28.60;99.80;;;;;;4955734;28;20043;-74
2023/08/11 10:51:28;;;;;;;4.60;2.22;;;28.80;99.90;;;;;;4923920;28;20256;-74
2023/08/11 10:53:55;;;;;;;6.15;2.03;;;28.80;98.70;;;;;;4923780;28;20047;-73
2023/08/11 10:56:47;;;;;;;4.15;1.95;;;28.90;99.90;;;;;;4954224;28;20039;-74
2023/08/11 10:59:31;;;;;;;3.83;1.58;;;29.00;98.30;;;;;;4952048;28;20055;-73
2023/08/11 11:01:58;;;;;;;2.90;2.00;;;29.00;98.50;;;;;;4943446;28;20123;-74
2023/08/11 11:04:29;;;;;;;5.18;2.25;;;29.10;98.60;;;;;;4946702;28;20035;-74
2023/08/11 11:06:54;;;;;;;6.28;2.15;;;29.10;98.50;;;;;;4954880;28;20057;-74
2023/08/11 11:09:20;;;;;;;3.72;2.00;;;29.20;99.00;;;;;;4943135;28;20031;-74
2023/08/11 11:11:46;;;;;;;6.90;2.00;;;29.20;98.70;;;;;;4922334;28;20035;-75
2023/08/11 11:14:13;;;;;;;6.03;1.80;;;29.20;98.50;;;;;;4941967;28;20051;-75
2023/08/11 11:16:39;;;;;;;6.00;1.70;;;29.10;98.00;;;;;;4942078;28;20047;-75
2023/08/11 11:19:07;;;;;;;3.67;1.50;;;29.20;97.90;;;;;;4939834;28;20394;-76
2023/08/11 11:21:34;;;;;;;4.00;1.70;;;29.60;97.70;;;;;;4932866;29;20051;-75
2023/08/11 11:24:00;;;;;;;4.90;1.90;;;29.50;97.30;;;;;;4955766;28;20055;-75
2023/08/11 11:26:27;;;;;;;5.53;2.75;;;29.50;97.80;;;;;;4945145;28;20039;-75
2023/08/11 11:28:55;;;;;;;4.93;1.77;;;29.10;97.30;;;;;;4954272;28;20426;-75
2023/08/11 11:31:22;;;;;;;4.85;1.83;;;29.10;97.80;;;;;;4958991;28;20126;-75
2023/08/11 11:33:49;;;;;;;4.68;2.17;;;29.10;98.40;;;;;;4945118;28;20047;-75
2023/08/11 11:36:17;;;;;;;8.93;2.47;;;28.90;98.10;;;;;;4955625;28;20058;-75
2023/08/11 11:38:43;;;;;;;2.83;2.13;;;28.90;99.10;;;;;;4941774;28;20547;-75
2023/08/11 11:41:11;;;;;;;6.32;1.75;;;28.70;98.70;;;;;;4958499;28;20138;-75
2023/08/11 11:43:37;;;;;;;8.45;2.40;;;28.80;99.40;;;;;;4959201;28;20098;-75
2023/08/11 11:46:03;;;;;;;2.33;1.55;;;28.90;99.00;;;;;;4928741;29;20047;-75
2023/08/11 11:48:29;;;;;;;5.22;1.52;;;29.10;98.80;;;;;;4929073;29;20086;-75
2023/08/11 11:50:55;;;;;;;6.22;2.08;;;29.10;98.80;;;;;;4933447;29;20085;-75
2023/08/11 11:53:22;;;;;;;2.75;1.52;;;29.20;98.60;;;;;;4945815;28;20047;-75
2023/08/11 11:55:50;;;;;;;6.32;1.83;;;29.20;98.80;;;;;;4948622;28;20134;-75
2023/08/11 11:58:17;;;;;;;5.78;2.17;;;29.30;98.60;;;;;;4948056;28;20050;-75
2023/08/11 12:00:45;;;;;;;2.42;1.65;;;29.30;98.40;;;;;;4961740;28;20078;-74
2023/08/11 12:03:11;;;;;;;4.50;1.65;;;29.50;98.80;;;;;;4952116;28;20046;-75
2023/08/11 12:05:37;;;;;;;4.60;1.65;;;29.40;97.90;;;;;;4947484;28;20039;-75
2023/08/11 12:08:23;;;;;;;4.50;2.30;;;29.40;98.00;;;;;;4945267;28;20087;-75
2023/08/11 12:10:49;;;;;;;4.07;1.58;;;29.40;98.00;;;;;;4948321;28;20454;-75
2023/08/11 12:13:16;;;;;;;5.57;1.98;;;29.40;98.10;;;;;;4964236;28;20495;-74
2023/08/11 12:15:43;;;;;;;6.43;1.52;;;29.40;98.00;;;;;;4932085;29;20047;-75
2023/08/11 12:18:10;;;;;;;8.20;1.45;;;29.40;98.50;;;;;;4948345;28;20187;-74
2023/08/11 12:20:36;;;;;;;8.00;1.98;;;29.50;98.60;;;;;;4946401;28;20043;-74
2023/08/11 12:23:02;;;;;;;3.35;2.13;;;29.50;98.10;;;;;;4949748;28;20063;-74
2023/08/11 12:25:28;;;;;;;2.42;1.50;;;29.60;98.80;;;;;;4931113;29;20054;-75
2023/08/11 12:27:53;;;;;;;5.25;1.50;;;29.60;97.40;;;;;;4944222;29;20052;-75
2023/08/11 12:30:19;;;;;;;8.02;1.40;;;29.60;98.40;;;;;;4947157;28;20114;-74
2023/08/11 12:32:45;;;;;;;4.65;1.92;;;29.70;99.00;;;;;;4929464;29;20458;-74
2023/08/11 12:35:11;;;;;;;17.17;2.25;;;29.80;98.80;;;;;;4931225;29;20079;-74
2023/08/11 12:37:37;;;;;;;4.18;1.60;;;29.90;98.60;;;;;;4946082;28;20090;-74
2023/08/11 12:40:03;;;;;;;5.72;1.80;;;30.00;99.50;;;;;;4960600;28;20047;-74
2023/08/11 12:42:29;;;;;;;7.53;2.08;;;30.00;98.50;;;;;;4945470;28;20043;-74